Pahranagat National Wildlife Refuge, Nevada Weather observations

Data are for 10 minute period ending at time listed.
 Day   Time   Solar   Ave.   Ave.  Ave.  Vector  Max.   Baro.   Total    
  of    of     Rad.   Air    Rel.  Wind   Wind   Wind  Press.  Precip.   
Year   Day            Temp.  Hum.  Speed  Dir.   Gust                    
2016   (PST)  Kw/m2    F      %     mph   deg.    mph    mb.     in.     
-------------------------------------------------------------------------
 207   21:50   0.00   75.4    34    1.6   332     3.1   900.0    0.00 
 207   22:00   0.00   72.1    45    2.5   325     3.4   900.1    0.00 
 207   22:10   0.00   69.9    47    2.5   359     4.3   900.1    0.00 
 207   22:20   0.00   69.9    47    4.0   335     4.9   900.3    0.00 
 207   22:30   0.00   70.0    45    3.1   336     4.7   900.3    0.00 
 207   22:40   0.00   71.9    42    2.3   314     3.9   900.4    0.00 
 207   22:50   0.00   72.7    42    2.5   312     3.9   900.5    0.00 
 207   23:00   0.00   72.7    42    1.7   349     2.9   900.5    0.00 
 207   23:10   0.00   81.5    30    4.1   112     6.1   900.4    0.00 
 207   23:20   0.00   77.7    37    2.9   217     5.3   900.4    0.00 
 207   23:30   0.00   70.4    50    2.6   326     3.4   900.5    0.00 
 207   23:40   0.00   70.9    46    2.4     3     3.6   900.5    0.00 
 207   23:50   0.00   73.0    40    2.5   355     4.0   900.5    0.00 
 208    0:00   0.00   71.5    45    1.5   336     2.9   900.5    0.00 
 208    0:10   0.00   68.2    50    1.4    11     2.5   900.5    0.00 
 208    0:20   0.00   65.6    60    2.9   302     3.9   900.6    0.00 
 208    0:30   0.00   64.7    59    2.5   359     4.3   900.7    0.00 
 208    0:40   0.00   62.8    66    0.8   223     2.6   900.9    0.00 
 208    0:50   0.00   61.9    70    1.1   157     2.2   901.0    0.00 
 208    1:00   0.00   65.2    56    1.9    42     3.6   901.0    0.00 
 208    1:10   0.00   68.1    46    2.4    24     3.1   901.1    0.00 
 208    1:20   0.00   62.4    64    1.5   280     4.4   901.2    0.00 
 208    1:30   0.00   60.0    72    1.5   254     3.0   901.4    0.00 
 208    1:40   0.00   61.1    66    2.7     9     4.5   901.5    0.00 
 208    1:50   0.00   63.6    56    3.1    21     4.3   901.6    0.00 
 208    2:00   0.00   65.3    51    1.1   336     3.2   901.6    0.00 
 208    2:10   0.00   63.1    62    1.2   195     3.1   901.7    0.00 
 208    2:20   0.00   61.3    69    0.8    74     2.3   901.7    0.00 
 208    2:30   0.00   63.8    55    3.0    34     3.8   901.8    0.00 
 208    2:40   0.00   63.1    59    2.2   326     4.0   901.8    0.00 
 208    2:50   0.00   58.7    72    2.2   307     3.6   901.9    0.00 
 208    3:00   0.00   58.2    74    3.1   316     4.5   902.0    0.00 
 208    3:10   0.00   58.8    73    1.6   327     3.5   902.0    0.00 
 208    3:20   0.00   59.0    73    0.9   282     2.9   902.1    0.00 
 208    3:30   0.00   58.7    74    1.1   175     2.6   902.1    0.00 
 208    3:40   0.00   59.7    74    1.0   191     2.8   902.2    0.00 
 208    3:50   0.00   60.8    69    0.2   145     1.5   902.2    0.00 
 208    4:00   0.00   63.1    60    1.2    16     3.9   902.3    0.00 
 208    4:10   0.00   66.1    51    3.9     0     4.8   902.3    0.00 
 208    4:20   0.00   64.5    55    2.6   324     3.7   902.4    0.00 
 208    4:30   0.00   60.5    66    1.9   304     3.1   902.5    0.00 
 208    4:40   0.00   59.6    68    0.6   324     1.8   902.6    0.00 
 208    4:50   0.00   60.2    65    2.7   305     5.3   902.7    0.00 
 208    5:00   0.01   61.1    62    2.9   325     5.1   902.8    0.00 
 208    5:10   0.02   60.8    64    2.2   292     3.0   902.9    0.00 
 208    5:20   0.03   61.9    61    2.5   285     3.9   902.9    0.00 
 208    5:30   0.04   63.0    59    3.1   289     4.0   903.0    0.00 
 208    5:40   0.06   64.5    60    1.8   286     2.6   903.1    0.00 
 208    5:50   0.08   66.2    59    1.5   326     4.0   903.1    0.00 
 208    6:00   0.11   67.7    54    3.4   320     4.9   903.2    0.00 
 208    6:10   0.13   69.3    52    2.9   305     4.4   903.2    0.00 
 208    6:20   0.15   70.2    54    2.3   295     3.7   903.3    0.00 
 208    6:30   0.18   71.9    50    2.8   308     4.9   903.3    0.00 
 208    6:40   0.20   73.7    43    3.1   318     5.2   903.3    0.00 
 208    6:50   0.23   75.3    46    2.0   303     3.6   903.2    0.00 
 208    7:00   0.25   76.5    44    2.3   311     3.9   903.2    0.00 
 208    7:10   0.28   78.1    40    3.3   327     5.3   903.3    0.00 
 208    7:20   0.30   79.3    38    3.0   328     4.6   903.3    0.00 
 208    7:30   0.33   81.1    38    2.4   331     4.4   903.1    0.00 
 208    7:40   0.35   83.0    36    2.2   325     3.5   903.0    0.00 
 208    7:50   0.37   84.7    34    2.0   326     2.9   902.8    0.00 
 208    8:00   0.40   86.1    33    1.9   275     2.8   902.8    0.00 
 208    8:10   0.42   86.6    35    1.8   246     2.7   902.7    0.00 
 208    8:20   0.44   89.1    30    1.8   158     4.7   902.7    0.00 
 208    8:30   0.46   91.7    27    6.8   142    11.5   902.6    0.00 
 208    8:40   0.48   92.4    27    6.7   144    12.3   902.7    0.00 
 208    8:50   0.50   92.8    26    8.9   144    12.9   902.7    0.00 
 208    9:00   0.52   93.1    26    9.2   141    14.0   902.8    0.00 
 208    9:10   0.54   93.1    25   10.1   143    14.4   902.8    0.00 
 208    9:20   0.56   93.7    24   10.1   134    15.1   902.8    0.00 
 208    9:30   0.58   94.1    23    9.3   140    13.5   902.8    0.00 
 208    9:40   0.59   94.9    22    7.6   138    12.1   902.8    0.00 
 208    9:50   0.61   95.3    22    7.3   135    12.5   902.8    0.00 
 208   10:00   0.62   95.9    20    8.5   124    13.2   902.8    0.00 
 208   10:10   0.64   96.0    19    8.4   122    13.7   902.7    0.00 
 208   10:20   0.65   96.4    18    7.7   137    13.5   902.7    0.00 
 208   10:30   0.66   96.8    18    8.2   113    14.0   902.6    0.00 
 208   10:40   0.67   97.6    18    5.9   133    11.1   902.6    0.00 
 208   10:50   0.68   98.0    18    6.5   132    12.3   902.4    0.00 
 208   11:00   0.69   98.2    18    7.0   147    12.4   902.4    0.00 
 208   11:10   0.69   98.6    19    7.9   153    15.9   902.2    0.00 
 208   11:20   0.70   98.9    18    6.3   137    11.8   902.1    0.00 
 208   11:30   0.70   99.0    18    8.7   116    14.2   901.9    0.00 
 208   11:40   0.71   99.2    17    6.9   109    13.1   901.7    0.00 
 208   11:50   0.71   99.5    17    7.6   127    13.8   901.6    0.00 
 208   12:00   0.71   99.4    17    7.2   103    14.0   901.4    0.00 
 208   12:10   0.71  100.1    16    7.2   128    13.3   901.3    0.00 
 208   12:20   0.71  100.3    16    6.9   118    14.8   901.2    0.00 
 208   12:30   0.70  100.6    15    7.6   139    15.0   901.0    0.00 
 208   12:40   0.69  100.9    16    6.7   139    11.8   900.9    0.00 
 208   12:50   0.70  100.9    16    7.8   154    12.8   900.7    0.00 
 208   13:00   0.69  101.5    16    6.2   162    18.0   900.6    0.00 
 208   13:10   0.68  101.1    15    9.1   138    16.7   900.5    0.00 
 208   13:20   0.67  101.6    14    8.5   126    13.3   900.4    0.00 
 208   13:30   0.66  102.3    14    4.8   146    10.2   900.3    0.00 
 208   13:40   0.65  102.6    14    7.3   164    17.5   900.1    0.00 
 208   13:50   0.63  102.7    16    6.1   182    12.8   900.1    0.00 
 208   14:00   0.62  102.2    14    6.8   138    15.9   900.0    0.00 
 208   14:10   0.60  103.1    13    4.3    72     9.9   899.8    0.00 
 208   14:20   0.59  103.3    13    6.7   145    12.8   899.6    0.00 
 208   14:30   0.57  102.6    13    8.7   151    15.6   899.4    0.00 
 208   14:40   0.56  103.3    12    5.7   153    11.4   899.3    0.00 
 208   14:50   0.36  102.0    14    6.9   158    14.1   899.2    0.00 
 208   15:00   0.53  102.5    13    5.8   140     9.3   899.0    0.00 
 208   15:10   0.50  102.5    12   10.7   136    15.3   899.0    0.00 
 208   15:20   0.48  102.7    13    6.5   147    12.1   898.9    0.00 
 208   15:30   0.46  104.0    14    3.6   176     7.1   898.8    0.00 
 208   15:40   0.44  104.1    14    4.4   170    12.1   898.7    0.00 
 208   15:50   0.42  103.1    13    8.2   131    15.3   898.5    0.00 
 208   16:00   0.36  102.5    13    4.1   221    10.7   898.5    0.00 
 208   16:10   0.34  101.3    15    5.4   164     9.9   898.5    0.00 
 208   16:20   0.19  101.0    15    5.7   152    10.1   898.5    0.00 
 208   16:30   0.10   97.7    16    4.2   175     8.3   898.4    0.00 
 208   16:40   0.04   97.0    15    4.2   194     9.8   898.4    0.00 
 208   16:50   0.17   96.6    16    3.5   158     5.8   898.4    0.00 
 208   17:00   0.24   98.8    17    4.5   147     9.1   898.2    0.00 
 208   17:10   0.22  100.2    15    3.8   141     9.1   898.1    0.00 
 208   17:20   0.19  100.4    13    7.1   153    11.2   898.1    0.00 
 208   17:30   0.17   98.6    16    6.1   143     9.3   898.1    0.00 
 208   17:40   0.14   98.1    18    3.6   165     5.8   898.2    0.00 
 208   17:50   0.12   97.9    17    3.3   177     5.3   898.3    0.00 
 208   18:00   0.09   96.6    17    4.5   154     9.3   898.2    0.00 
 208   18:10   0.07   97.1    16    2.6   165     5.0   898.3    0.00 
 208   18:20   0.05   93.4    20    4.2   150     5.8   898.2    0.00 
 208   18:30   0.03   91.8    22    3.4   150     5.3   898.2    0.00 
 208   18:40   0.01   90.9    21    4.0   140     5.4   898.2    0.00 
 208   18:50   0.01   89.9    22    4.9   146     7.5   898.2    0.00 
 208   19:00   0.00   89.2    21    4.3   133     5.3   898.1    0.00 
 208   19:10   0.00   89.1    22    4.5   139     6.1   898.0    0.00 
 208   19:20   0.00   88.3    22    4.6   145     6.1   898.0    0.00 
 208   19:30   0.00   89.2    20    4.2   139     5.3   898.0    0.00 
 208   19:40   0.00   88.7    20    3.6   134     5.1   898.1    0.00 
 208   19:50   0.00   89.7    19    3.6   132     5.6   898.2    0.00 
 208   20:00   0.00   86.6    23    2.8    50     5.7   898.3    0.00 
 208   20:10   0.00   84.8    24    4.0     8     5.8   898.3    0.00 
 208   20:20   0.00   89.5    18    3.2    19     4.8   898.4    0.00 
 208   20:30   0.00   85.6    23    2.1    23     4.7   898.5    0.00 
 208   20:40   0.00   85.5    22    2.9    72     5.8   898.6    0.00 
 208   20:50   0.00   82.5    26    1.4   336     4.5   898.8    0.00 
 208   21:00   0.00   80.6    32    2.2   350     4.6   898.9    0.00 
 208   21:10   0.00   72.7    46    2.1     2     4.6   899.0    0.00 
 208   21:20   0.00   72.7    49    2.0   296     4.1   899.1    0.00 
 208   21:30   0.00   70.5    50    1.4    10     2.4   899.2    0.00 
 208   21:40   0.00   73.5    39    2.0     5     5.5   899.4    0.00 

Return to Pahranagat N. Wildlife Refuge graphs page.


Western Regional Climate Center,wrcc@dri.edu